sensor_id;sensor_type;location;lat;lon;timestamp;P1;durP1;ratioP1;P2;durP2;ratioP2
19905;SDS011;10115;50.906;4.438;2024-01-07T00:02:13;23.00;;;21.23;;
19905;SDS011;10115;50.906;4.438;2024-01-07T00:04:42;22.50;;;21.20;;
19905;SDS011;10115;50.906;4.438;2024-01-07T00:07:08;20.90;;;19.50;;
19905;SDS011;10115;50.906;4.438;2024-01-07T00:09:33;21.83;;;20.37;;
19905;SDS011;10115;50.906;4.438;2024-01-07T00:11:59;20.67;;;19.43;;
19905;SDS011;10115;50.906;4.438;2024-01-07T00:14:24;20.80;;;19.23;;
19905;SDS011;10115;50.906;4.438;2024-01-07T00:16:50;21.77;;;20.30;;
19905;SDS011;10115;50.906;4.438;2024-01-07T00:19:16;20.00;;;18.60;;
19905;SDS011;10115;50.906;4.438;2024-01-07T00:21:41;19.03;;;17.93;;
19905;SDS011;10115;50.906;4.438;2024-01-07T00:24:07;18.93;;;17.53;;
19905;SDS011;10115;50.906;4.438;2024-01-07T00:26:32;18.60;;;17.30;;
19905;SDS011;10115;50.906;4.438;2024-01-07T00:28:58;20.70;;;19.30;;
19905;SDS011;10115;50.906;4.438;2024-01-07T00:31:24;20.73;;;19.30;;
19905;SDS011;10115;50.906;4.438;2024-01-07T00:33:49;22.23;;;20.83;;
19905;SDS011;10115;50.906;4.438;2024-01-07T00:36:15;21.40;;;20.17;;
19905;SDS011;10115;50.906;4.438;2024-01-07T00:38:40;20.50;;;18.93;;
19905;SDS011;10115;50.906;4.438;2024-01-07T00:41:06;19.77;;;18.40;;
19905;SDS011;10115;50.906;4.438;2024-01-07T00:43:32;21.20;;;19.80;;
19905;SDS011;10115;50.906;4.438;2024-01-07T00:45:57;20.20;;;18.80;;
19905;SDS011;10115;50.906;4.438;2024-01-07T00:48:23;19.97;;;18.57;;
19905;SDS011;10115;50.906;4.438;2024-01-07T00:50:48;19.83;;;18.63;;
19905;SDS011;10115;50.906;4.438;2024-01-07T00:53:14;21.47;;;20.07;;
19905;SDS011;10115;50.906;4.438;2024-01-07T00:55:39;20.57;;;19.17;;
19905;SDS011;10115;50.906;4.438;2024-01-07T00:58:05;19.43;;;17.93;;
19905;SDS011;10115;50.906;4.438;2024-01-07T01:00:31;19.30;;;18.07;;
19905;SDS011;10115;50.906;4.438;2024-01-07T01:02:56;18.50;;;17.40;;
19905;SDS011;10115;50.906;4.438;2024-01-07T01:05:23;19.27;;;18.07;;
19905;SDS011;10115;50.906;4.438;2024-01-07T01:07:48;17.67;;;16.67;;
19905;SDS011;10115;50.906;4.438;2024-01-07T01:10:14;20.40;;;19.00;;
19905;SDS011;10115;50.906;4.438;2024-01-07T01:12:42;21.40;;;19.90;;
19905;SDS011;10115;50.906;4.438;2024-01-07T01:15:08;18.63;;;17.23;;
19905;SDS011;10115;50.906;4.438;2024-01-07T01:17:34;19.53;;;18.13;;
19905;SDS011;10115;50.906;4.438;2024-01-07T01:19:59;18.27;;;17.07;;
19905;SDS011;10115;50.906;4.438;2024-01-07T01:22:25;19.43;;;18.13;;
19905;SDS011;10115;50.906;4.438;2024-01-07T01:24:51;20.27;;;18.97;;
19905;SDS011;10115;50.906;4.438;2024-01-07T01:27:18;18.50;;;17.30;;
19905;SDS011;10115;50.906;4.438;2024-01-07T01:29:44;20.90;;;19.40;;
19905;SDS011;10115;50.906;4.438;2024-01-07T01:32:09;17.13;;;16.03;;
19905;SDS011;10115;50.906;4.438;2024-01-07T01:34:35;20.73;;;19.17;;
19905;SDS011;10115;50.906;4.438;2024-01-07T01:37:01;20.80;;;19.00;;
19905;SDS011;10115;50.906;4.438;2024-01-07T01:39:28;19.37;;;18.03;;
19905;SDS011;10115;50.906;4.438;2024-01-07T01:41:54;19.87;;;18.47;;
19905;SDS011;10115;50.906;4.438;2024-01-07T01:44:19;17.13;;;16.13;;
19905;SDS011;10115;50.906;4.438;2024-01-07T01:46:45;22.20;;;20.50;;
19905;SDS011;10115;50.906;4.438;2024-01-07T01:49:12;21.97;;;19.87;;
19905;SDS011;10115;50.906;4.438;2024-01-07T01:51:38;20.63;;;19.23;;
19905;SDS011;10115;50.906;4.438;2024-01-07T01:54:04;20.03;;;18.73;;
19905;SDS011;10115;50.906;4.438;2024-01-07T01:56:30;17.80;;;16.67;;
19905;SDS011;10115;50.906;4.438;2024-01-07T01:58:57;20.43;;;18.93;;
19905;SDS011;10115;50.906;4.438;2024-01-07T02:01:23;19.30;;;18.00;;
19905;SDS011;10115;50.906;4.438;2024-01-07T02:03:49;18.63;;;17.50;;
19905;SDS011;10115;50.906;4.438;2024-01-07T02:06:16;19.63;;;18.23;;
19905;SDS011;10115;50.906;4.438;2024-01-07T02:08:42;19.90;;;18.50;;
19905;SDS011;10115;50.906;4.438;2024-01-07T02:11:18;19.50;;;18.23;;
19905;SDS011;10115;50.906;4.438;2024-01-07T02:13:45;19.57;;;18.27;;
19905;SDS011;10115;50.906;4.438;2024-01-07T02:16:11;18.20;;;17.00;;
19905;SDS011;10115;50.906;4.438;2024-01-07T02:18:37;20.83;;;19.33;;
19905;SDS011;10115;50.906;4.438;2024-01-07T02:21:05;20.90;;;19.27;;
19905;SDS011;10115;50.906;4.438;2024-01-07T02:23:32;18.90;;;17.63;;
19905;SDS011;10115;50.906;4.438;2024-01-07T02:25:58;18.33;;;17.27;;
19905;SDS011;10115;50.906;4.438;2024-01-07T02:28:23;20.17;;;18.90;;
19905;SDS011;10115;50.906;4.438;2024-01-07T02:30:49;21.53;;;20.17;;
19905;SDS011;10115;50.906;4.438;2024-01-07T02:33:14;20.37;;;18.93;;
19905;SDS011;10115;50.906;4.438;2024-01-07T02:35:40;20.00;;;18.47;;
19905;SDS011;10115;50.906;4.438;2024-01-07T02:38:06;19.80;;;18.67;;
19905;SDS011;10115;50.906;4.438;2024-01-07T02:40:31;19.97;;;18.73;;
19905;SDS011;10115;50.906;4.438;2024-01-07T02:42:57;19.57;;;18.33;;
19905;SDS011;10115;50.906;4.438;2024-01-07T02:45:23;21.10;;;19.30;;
19905;SDS011;10115;50.906;4.438;2024-01-07T02:47:49;20.93;;;19.03;;
19905;SDS011;10115;50.906;4.438;2024-01-07T02:50:14;22.07;;;20.03;;
19905;SDS011;10115;50.906;4.438;2024-01-07T02:52:41;19.97;;;18.67;;
19905;SDS011;10115;50.906;4.438;2024-01-07T02:55:07;21.83;;;20.13;;
19905;SDS011;10115;50.906;4.438;2024-01-07T02:57:33;19.83;;;18.57;;
19905;SDS011;10115;50.906;4.438;2024-01-07T02:59:59;22.10;;;20.17;;
19905;SDS011;10115;50.906;4.438;2024-01-07T03:02:25;23.13;;;20.97;;
19905;SDS011;10115;50.906;4.438;2024-01-07T03:04:50;22.37;;;20.70;;
19905;SDS011;10115;50.906;4.438;2024-01-07T03:07:16;20.60;;;19.10;;
19905;SDS011;10115;50.906;4.438;2024-01-07T03:09:42;21.53;;;20.10;;
19905;SDS011;10115;50.906;4.438;2024-01-07T03:12:07;23.00;;;20.87;;
19905;SDS011;10115;50.906;4.438;2024-01-07T03:14:33;23.17;;;21.07;;
19905;SDS011;10115;50.906;4.438;2024-01-07T03:16:59;22.17;;;20.47;;
19905;SDS011;10115;50.906;4.438;2024-01-07T03:19:24;21.93;;;20.23;;
19905;SDS011;10115;50.906;4.438;2024-01-07T03:21:50;20.67;;;19.17;;
19905;SDS011;10115;50.906;4.438;2024-01-07T03:24:16;22.50;;;20.67;;
19905;SDS011;10115;50.906;4.438;2024-01-07T03:26:41;23.77;;;21.67;;
19905;SDS011;10115;50.906;4.438;2024-01-07T03:29:07;22.57;;;20.63;;
19905;SDS011;10115;50.906;4.438;2024-01-07T03:31:33;23.10;;;21.30;;
19905;SDS011;10115;50.906;4.438;2024-01-07T03:33:58;23.20;;;20.93;;
19905;SDS011;10115;50.906;4.438;2024-01-07T03:36:24;21.60;;;20.03;;
19905;SDS011;10115;50.906;4.438;2024-01-07T03:38:50;22.07;;;20.37;;
19905;SDS011;10115;50.906;4.438;2024-01-07T03:41:19;18.80;;;17.57;;
19905;SDS011;10115;50.906;4.438;2024-01-07T03:43:48;23.53;;;21.53;;
19905;SDS011;10115;50.906;4.438;2024-01-07T03:46:14;21.97;;;20.37;;
19905;SDS011;10115;50.906;4.438;2024-01-07T03:48:41;23.20;;;21.23;;
19905;SDS011;10115;50.906;4.438;2024-01-07T03:51:07;22.70;;;20.83;;
19905;SDS011;10115;50.906;4.438;2024-01-07T03:53:33;25.10;;;22.50;;
19905;SDS011;10115;50.906;4.438;2024-01-07T03:55:59;23.50;;;21.40;;
19905;SDS011;10115;50.906;4.438;2024-01-07T03:58:24;22.73;;;20.70;;
19905;SDS011;10115;50.906;4.438;2024-01-07T04:00:50;22.50;;;20.70;;
19905;SDS011;10115;50.906;4.438;2024-01-07T04:03:15;23.97;;;21.87;;
19905;SDS011;10115;50.906;4.438;2024-01-07T04:05:41;22.53;;;20.57;;
19905;SDS011;10115;50.906;4.438;2024-01-07T04:08:10;24.97;;;22.83;;
19905;SDS011;10115;50.906;4.438;2024-01-07T04:10:36;23.93;;;22.00;;
19905;SDS011;10115;50.906;4.438;2024-01-07T04:13:03;22.73;;;21.17;;
19905;SDS011;10115;50.906;4.438;2024-01-07T04:15:29;25.53;;;22.97;;
19905;SDS011;10115;50.906;4.438;2024-01-07T04:17:55;23.30;;;21.37;;
19905;SDS011;10115;50.906;4.438;2024-01-07T04:20:21;23.60;;;21.37;;
19905;SDS011;10115;50.906;4.438;2024-01-07T04:22:46;22.23;;;20.60;;
19905;SDS011;10115;50.906;4.438;2024-01-07T04:25:12;27.50;;;24.80;;
19905;SDS011;10115;50.906;4.438;2024-01-07T04:27:38;26.43;;;23.80;;
19905;SDS011;10115;50.906;4.438;2024-01-07T04:30:04;26.53;;;24.00;;
19905;SDS011;10115;50.906;4.438;2024-01-07T04:32:31;25.00;;;22.90;;
19905;SDS011;10115;50.906;4.438;2024-01-07T04:34:57;24.07;;;22.07;;
19905;SDS011;10115;50.906;4.438;2024-01-07T04:37:25;24.50;;;22.13;;
19905;SDS011;10115;50.906;4.438;2024-01-07T04:39:52;26.57;;;24.20;;
19905;SDS011;10115;50.906;4.438;2024-01-07T04:42:18;26.63;;;23.40;;
19905;SDS011;10115;50.906;4.438;2024-01-07T04:44:43;24.90;;;22.10;;
19905;SDS011;10115;50.906;4.438;2024-01-07T04:47:25;26.97;;;23.90;;
19905;SDS011;10115;50.906;4.438;2024-01-07T04:49:55;25.70;;;23.07;;
19905;SDS011;10115;50.906;4.438;2024-01-07T04:52:24;25.67;;;23.47;;
19905;SDS011;10115;50.906;4.438;2024-01-07T04:54:51;26.20;;;23.97;;
19905;SDS011;10115;50.906;4.438;2024-01-07T04:57:18;19.67;;;18.07;;
19905;SDS011;10115;50.906;4.438;2024-01-07T04:59:44;25.30;;;23.00;;
19905;SDS011;10115;50.906;4.438;2024-01-07T05:02:10;29.33;;;23.80;;
19905;SDS011;10115;50.906;4.438;2024-01-07T05:04:36;25.33;;;23.07;;
19905;SDS011;10115;50.906;4.438;2024-01-07T05:07:02;27.10;;;24.47;;
19905;SDS011;10115;50.906;4.438;2024-01-07T05:09:28;29.43;;;25.27;;
19905;SDS011;10115;50.906;4.438;2024-01-07T05:11:54;26.73;;;24.37;;
19905;SDS011;10115;50.906;4.438;2024-01-07T05:14:20;26.17;;;23.40;;
19905;SDS011;10115;50.906;4.438;2024-01-07T05:16:47;22.90;;;21.00;;
19905;SDS011;10115;50.906;4.438;2024-01-07T05:19:13;27.17;;;24.07;;
19905;SDS011;10115;50.906;4.438;2024-01-07T05:21:39;26.60;;;23.73;;
19905;SDS011;10115;50.906;4.438;2024-01-07T05:24:04;27.57;;;24.90;;
19905;SDS011;10115;50.906;4.438;2024-01-07T05:26:30;23.83;;;21.97;;
19905;SDS011;10115;50.906;4.438;2024-01-07T05:28:56;25.10;;;23.20;;
19905;SDS011;10115;50.906;4.438;2024-01-07T05:31:22;23.90;;;21.83;;
19905;SDS011;10115;50.906;4.438;2024-01-07T05:33:47;24.43;;;22.40;;
19905;SDS011;10115;50.906;4.438;2024-01-07T05:36:13;24.20;;;22.03;;
19905;SDS011;10115;50.906;4.438;2024-01-07T05:38:41;23.73;;;21.63;;
19905;SDS011;10115;50.906;4.438;2024-01-07T05:41:07;26.50;;;23.83;;
19905;SDS011;10115;50.906;4.438;2024-01-07T05:43:32;27.47;;;24.70;;
19905;SDS011;10115;50.906;4.438;2024-01-07T05:45:58;21.70;;;20.00;;
19905;SDS011;10115;50.906;4.438;2024-01-07T05:48:24;26.07;;;23.43;;
19905;SDS011;10115;50.906;4.438;2024-01-07T05:50:49;25.20;;;22.50;;
19905;SDS011;10115;50.906;4.438;2024-01-07T05:53:16;29.23;;;22.60;;
19905;SDS011;10115;50.906;4.438;2024-01-07T05:55:42;21.37;;;19.73;;
19905;SDS011;10115;50.906;4.438;2024-01-07T05:58:08;22.83;;;20.60;;
19905;SDS011;10115;50.906;4.438;2024-01-07T06:00:33;26.03;;;23.37;;
19905;SDS011;10115;50.906;4.438;2024-01-07T06:02:59;26.43;;;24.03;;
19905;SDS011;10115;50.906;4.438;2024-01-07T06:05:25;25.43;;;23.33;;
19905;SDS011;10115;50.906;4.438;2024-01-07T06:07:51;24.63;;;22.57;;
19905;SDS011;10115;50.906;4.438;2024-01-07T06:10:17;25.23;;;22.93;;
19905;SDS011;10115;50.906;4.438;2024-01-07T06:12:42;22.87;;;21.00;;
19905;SDS011;10115;50.906;4.438;2024-01-07T06:15:08;24.97;;;22.57;;
19905;SDS011;10115;50.906;4.438;2024-01-07T06:17:34;24.77;;;22.43;;
19905;SDS011;10115;50.906;4.438;2024-01-07T06:19:59;23.70;;;21.53;;
19905;SDS011;10115;50.906;4.438;2024-01-07T06:22:25;26.50;;;24.23;;
19905;SDS011;10115;50.906;4.438;2024-01-07T06:24:51;20.73;;;19.03;;
19905;SDS011;10115;50.906;4.438;2024-01-07T06:27:16;26.10;;;23.40;;
19905;SDS011;10115;50.906;4.438;2024-01-07T06:29:42;26.03;;;23.07;;
19905;SDS011;10115;50.906;4.438;2024-01-07T06:32:08;25.77;;;23.17;;
19905;SDS011;10115;50.906;4.438;2024-01-07T06:34:35;23.40;;;21.60;;
19905;SDS011;10115;50.906;4.438;2024-01-07T06:37:00;25.27;;;22.93;;
19905;SDS011;10115;50.906;4.438;2024-01-07T06:39:26;26.20;;;23.87;;
19905;SDS011;10115;50.906;4.438;2024-01-07T06:41:52;22.13;;;20.40;;
19905;SDS011;10115;50.906;4.438;2024-01-07T06:44:18;25.07;;;22.83;;
19905;SDS011;10115;50.906;4.438;2024-01-07T06:46:43;26.83;;;23.40;;
19905;SDS011;10115;50.906;4.438;2024-01-07T06:49:09;27.17;;;24.67;;
19905;SDS011;10115;50.906;4.438;2024-01-07T06:51:35;21.60;;;19.63;;
19905;SDS011;10115;50.906;4.438;2024-01-07T06:54:00;22.03;;;20.23;;
19905;SDS011;10115;50.906;4.438;2024-01-07T06:56:26;28.27;;;24.97;;
19905;SDS011;10115;50.906;4.438;2024-01-07T06:58:52;26.17;;;23.53;;
19905;SDS011;10115;50.906;4.438;2024-01-07T07:01:19;24.97;;;22.73;;
19905;SDS011;10115;50.906;4.438;2024-01-07T07:03:46;27.17;;;22.73;;
19905;SDS011;10115;50.906;4.438;2024-01-07T07:06:12;25.30;;;22.73;;
19905;SDS011;10115;50.906;4.438;2024-01-07T07:08:38;23.90;;;21.53;;
19905;SDS011;10115;50.906;4.438;2024-01-07T07:11:04;24.57;;;22.73;;
19905;SDS011;10115;50.906;4.438;2024-01-07T07:13:29;26.83;;;24.20;;
19905;SDS011;10115;50.906;4.438;2024-01-07T07:15:55;26.67;;;23.17;;
19905;SDS011;10115;50.906;4.438;2024-01-07T07:18:21;28.27;;;22.23;;
19905;SDS011;10115;50.906;4.438;2024-01-07T07:20:46;28.90;;;22.10;;
19905;SDS011;10115;50.906;4.438;2024-01-07T07:23:12;32.27;;;24.77;;
19905;SDS011;10115;50.906;4.438;2024-01-07T07:25:38;22.50;;;20.43;;
19905;SDS011;10115;50.906;4.438;2024-01-07T07:28:04;28.73;;;25.33;;
19905;SDS011;10115;50.906;4.438;2024-01-07T07:30:30;28.43;;;24.33;;
19905;SDS011;10115;50.906;4.438;2024-01-07T07:32:55;26.67;;;23.83;;
19905;SDS011;10115;50.906;4.438;2024-01-07T07:35:21;30.70;;;25.03;;
19905;SDS011;10115;50.906;4.438;2024-01-07T07:37:47;26.23;;;21.93;;
19905;SDS011;10115;50.906;4.438;2024-01-07T07:40:12;28.13;;;25.17;;
19905;SDS011;10115;50.906;4.438;2024-01-07T07:42:38;23.27;;;21.13;;
19905;SDS011;10115;50.906;4.438;2024-01-07T07:45:04;29.47;;;26.07;;
19905;SDS011;10115;50.906;4.438;2024-01-07T07:47:30;28.47;;;25.73;;
19905;SDS011;10115;50.906;4.438;2024-01-07T07:49:56;30.57;;;27.57;;
19905;SDS011;10115;50.906;4.438;2024-01-07T07:52:22;28.23;;;26.23;;
19905;SDS011;10115;50.906;4.438;2024-01-07T07:54:51;27.30;;;24.90;;
19905;SDS011;10115;50.906;4.438;2024-01-07T07:57:17;29.27;;;26.43;;
19905;SDS011;10115;50.906;4.438;2024-01-07T07:59:44;34.83;;;27.20;;
19905;SDS011;10115;50.906;4.438;2024-01-07T08:02:10;30.10;;;27.40;;
19905;SDS011;10115;50.906;4.438;2024-01-07T08:04:36;29.60;;;27.37;;
19905;SDS011;10115;50.906;4.438;2024-01-07T08:07:02;29.63;;;26.60;;
19905;SDS011;10115;50.906;4.438;2024-01-07T08:09:27;26.87;;;23.83;;
19905;SDS011;10115;50.906;4.438;2024-01-07T08:11:53;30.53;;;25.07;;
19905;SDS011;10115;50.906;4.438;2024-01-07T08:14:19;27.50;;;24.97;;
19905;SDS011;10115;50.906;4.438;2024-01-07T08:16:44;25.60;;;23.60;;
19905;SDS011;10115;50.906;4.438;2024-01-07T08:19:10;29.83;;;23.90;;
19905;SDS011;10115;50.906;4.438;2024-01-07T08:21:36;27.50;;;25.03;;
19905;SDS011;10115;50.906;4.438;2024-01-07T08:24:01;28.97;;;26.40;;
19905;SDS011;10115;50.906;4.438;2024-01-07T08:26:29;29.43;;;26.87;;
19905;SDS011;10115;50.906;4.438;2024-01-07T08:28:54;30.70;;;27.90;;
19905;SDS011;10115;50.906;4.438;2024-01-07T08:31:20;36.47;;;33.77;;
19905;SDS011;10115;50.906;4.438;2024-01-07T08:33:45;29.17;;;27.17;;
19905;SDS011;10115;50.906;4.438;2024-01-07T08:36:11;32.57;;;29.90;;
19905;SDS011;10115;50.906;4.438;2024-01-07T08:38:37;47.77;;;45.10;;
19905;SDS011;10115;50.906;4.438;2024-01-07T08:41:02;27.73;;;25.57;;
19905;SDS011;10115;50.906;4.438;2024-01-07T08:43:29;28.73;;;26.53;;
19905;SDS011;10115;50.906;4.438;2024-01-07T08:45:55;28.90;;;26.70;;
19905;SDS011;10115;50.906;4.438;2024-01-07T08:48:20;28.77;;;26.33;;
19905;SDS011;10115;50.906;4.438;2024-01-07T08:50:46;26.47;;;24.43;;
19905;SDS011;10115;50.906;4.438;2024-01-07T08:53:11;27.83;;;25.53;;
19905;SDS011;10115;50.906;4.438;2024-01-07T08:55:37;25.93;;;24.13;;
19905;SDS011;10115;50.906;4.438;2024-01-07T08:58:03;26.13;;;24.00;;
19905;SDS011;10115;50.906;4.438;2024-01-07T09:00:29;24.17;;;22.67;;
19905;SDS011;10115;50.906;4.438;2024-01-07T09:02:56;28.83;;;25.57;;
19905;SDS011;10115;50.906;4.438;2024-01-07T09:05:22;25.10;;;23.10;;
19905;SDS011;10115;50.906;4.438;2024-01-07T09:07:49;28.50;;;26.17;;
19905;SDS011;10115;50.906;4.438;2024-01-07T09:10:15;26.87;;;24.70;;
19905;SDS011;10115;50.906;4.438;2024-01-07T09:12:41;26.17;;;24.27;;
19905;SDS011;10115;50.906;4.438;2024-01-07T09:15:07;26.17;;;24.20;;
19905;SDS011;10115;50.906;4.438;2024-01-07T09:17:34;24.03;;;22.30;;
19905;SDS011;10115;50.906;4.438;2024-01-07T09:20:03;25.13;;;23.53;;
19905;SDS011;10115;50.906;4.438;2024-01-07T09:22:32;27.90;;;26.00;;
19905;SDS011;10115;50.906;4.438;2024-01-07T09:24:58;22.40;;;21.20;;
19905;SDS011;10115;50.906;4.438;2024-01-07T09:27:24;26.60;;;24.33;;
19905;SDS011;10115;50.906;4.438;2024-01-07T09:29:49;23.50;;;21.93;;
19905;SDS011;10115;50.906;4.438;2024-01-07T09:32:16;26.60;;;24.00;;
19905;SDS011;10115;50.906;4.438;2024-01-07T09:34:42;26.70;;;23.97;;
19905;SDS011;10115;50.906;4.438;2024-01-07T09:37:08;24.23;;;22.17;;
19905;SDS011;10115;50.906;4.438;2024-01-07T09:39:38;22.43;;;21.20;;
19905;SDS011;10115;50.906;4.438;2024-01-07T09:42:05;24.10;;;22.33;;
19905;SDS011;10115;50.906;4.438;2024-01-07T09:44:40;26.60;;;24.00;;
19905;SDS011;10115;50.906;4.438;2024-01-07T09:47:07;20.63;;;19.30;;
19905;SDS011;10115;50.906;4.438;2024-01-07T09:49:35;20.47;;;19.03;;
19905;SDS011;10115;50.906;4.438;2024-01-07T09:52:01;19.80;;;18.73;;
19905;SDS011;10115;50.906;4.438;2024-01-07T09:54:30;26.27;;;23.53;;
19905;SDS011;10115;50.906;4.438;2024-01-07T09:57:02;25.23;;;23.13;;
19905;SDS011;10115;50.906;4.438;2024-01-07T09:59:31;26.90;;;24.63;;
19905;SDS011;10115;50.906;4.438;2024-01-07T10:01:57;25.27;;;23.17;;
19905;SDS011;10115;50.906;4.438;2024-01-07T10:04:23;27.43;;;25.03;;
19905;SDS011;10115;50.906;4.438;2024-01-07T10:06:50;25.30;;;23.40;;
19905;SDS011;10115;50.906;4.438;2024-01-07T10:09:17;24.37;;;22.20;;
19905;SDS011;10115;50.906;4.438;2024-01-07T10:11:44;26.03;;;23.67;;
19905;SDS011;10115;50.906;4.438;2024-01-07T10:14:09;24.23;;;22.60;;
19905;SDS011;10115;50.906;4.438;2024-01-07T10:16:35;22.90;;;20.80;;
19905;SDS011;10115;50.906;4.438;2024-01-07T10:19:01;23.10;;;21.27;;
19905;SDS011;10115;50.906;4.438;2024-01-07T10:21:27;26.53;;;22.87;;
19905;SDS011;10115;50.906;4.438;2024-01-07T10:24:06;23.90;;;22.20;;
19905;SDS011;10115;50.906;4.438;2024-01-07T10:26:34;25.07;;;23.23;;
19905;SDS011;10115;50.906;4.438;2024-01-07T10:29:00;22.70;;;21.10;;
19905;SDS011;10115;50.906;4.438;2024-01-07T10:31:25;25.23;;;23.30;;
19905;SDS011;10115;50.906;4.438;2024-01-07T10:33:52;23.43;;;21.77;;
19905;SDS011;10115;50.906;4.438;2024-01-07T10:36:17;23.73;;;21.80;;
19905;SDS011;10115;50.906;4.438;2024-01-07T10:38:45;25.73;;;22.30;;
19905;SDS011;10115;50.906;4.438;2024-01-07T10:41:11;25.47;;;22.73;;
19905;SDS011;10115;50.906;4.438;2024-01-07T10:43:38;19.83;;;18.73;;
19905;SDS011;10115;50.906;4.438;2024-01-07T10:46:05;23.60;;;22.00;;
19905;SDS011;10115;50.906;4.438;2024-01-07T10:48:34;24.47;;;22.33;;
19905;SDS011;10115;50.906;4.438;2024-01-07T10:51:03;27.00;;;24.20;;
19905;SDS011;10115;50.906;4.438;2024-01-07T10:53:33;26.13;;;23.90;;
19905;SDS011;10115;50.906;4.438;2024-01-07T10:56:05;24.50;;;22.63;;
19905;SDS011;10115;50.906;4.438;2024-01-07T10:58:36;23.63;;;22.00;;
19905;SDS011;10115;50.906;4.438;2024-01-07T11:01:02;20.00;;;18.63;;
19905;SDS011;10115;50.906;4.438;2024-01-07T11:06:36;26.13;;;23.87;;
19905;SDS011;10115;50.906;4.438;2024-01-07T11:09:19;22.40;;;20.50;;
19905;SDS011;10115;50.906;4.438;2024-01-07T11:11:49;23.10;;;21.50;;
19905;SDS011;10115;50.906;4.438;2024-01-07T11:14:34;24.00;;;22.07;;
19905;SDS011;10115;50.906;4.438;2024-01-07T11:17:01;24.10;;;22.27;;
19905;SDS011;10115;50.906;4.438;2024-01-07T11:19:28;25.83;;;23.57;;
19905;SDS011;10115;50.906;4.438;2024-01-07T11:22:10;23.30;;;22.00;;
19905;SDS011;10115;50.906;4.438;2024-01-07T11:24:53;28.23;;;26.13;;
19905;SDS011;10115;50.906;4.438;2024-01-07T11:27:23;25.33;;;23.30;;
19905;SDS011;10115;50.906;4.438;2024-01-07T11:29:53;23.53;;;21.87;;
19905;SDS011;10115;50.906;4.438;2024-01-07T11:32:23;26.00;;;24.43;;
19905;SDS011;10115;50.906;4.438;2024-01-07T11:34:53;26.50;;;24.40;;
19905;SDS011;10115;50.906;4.438;2024-01-07T11:37:21;28.63;;;26.43;;
19905;SDS011;10115;50.906;4.438;2024-01-07T11:39:48;34.20;;;31.80;;
19905;SDS011;10115;50.906;4.438;2024-01-07T11:42:16;25.87;;;24.27;;
19905;SDS011;10115;50.906;4.438;2024-01-07T11:44:46;27.63;;;25.23;;
19905;SDS011;10115;50.906;4.438;2024-01-07T11:47:15;24.83;;;23.23;;
19905;SDS011;10115;50.906;4.438;2024-01-07T11:49:41;25.97;;;24.20;;
19905;SDS011;10115;50.906;4.438;2024-01-07T11:52:08;25.37;;;23.57;;
19905;SDS011;10115;50.906;4.438;2024-01-07T11:54:35;25.83;;;23.97;;
19905;SDS011;10115;50.906;4.438;2024-01-07T11:57:04;26.80;;;24.20;;
19905;SDS011;10115;50.906;4.438;2024-01-07T11:59:30;28.47;;;25.57;;
19905;SDS011;10115;50.906;4.438;2024-01-07T12:01:57;24.50;;;22.77;;
19905;SDS011;10115;50.906;4.438;2024-01-07T12:04:24;23.83;;;22.03;;
19905;SDS011;10115;50.906;4.438;2024-01-07T12:06:49;24.03;;;22.27;;
19905;SDS011;10115;50.906;4.438;2024-01-07T12:09:15;24.67;;;23.10;;
19905;SDS011;10115;50.906;4.438;2024-01-07T12:11:41;23.10;;;21.50;;
19905;SDS011;10115;50.906;4.438;2024-01-07T12:14:07;23.93;;;21.80;;
19905;SDS011;10115;50.906;4.438;2024-01-07T12:16:34;23.77;;;22.30;;
19905;SDS011;10115;50.906;4.438;2024-01-07T12:19:00;25.67;;;23.63;;
19905;SDS011;10115;50.906;4.438;2024-01-07T12:21:26;22.47;;;21.07;;
19905;SDS011;10115;50.906;4.438;2024-01-07T12:23:53;23.63;;;21.93;;
19905;SDS011;10115;50.906;4.438;2024-01-07T12:26:19;23.57;;;21.43;;
19905;SDS011;10115;50.906;4.438;2024-01-07T12:28:51;22.23;;;20.70;;
19905;SDS011;10115;50.906;4.438;2024-01-07T12:31:22;21.43;;;20.33;;
19905;SDS011;10115;50.906;4.438;2024-01-07T12:33:48;23.20;;;21.73;;
19905;SDS011;10115;50.906;4.438;2024-01-07T12:36:14;22.93;;;21.27;;
19905;SDS011;10115;50.906;4.438;2024-01-07T12:38:40;22.30;;;21.00;;
19905;SDS011;10115;50.906;4.438;2024-01-07T12:41:06;22.27;;;20.87;;
19905;SDS011;10115;50.906;4.438;2024-01-07T12:43:32;23.97;;;22.33;;
19905;SDS011;10115;50.906;4.438;2024-01-07T12:45:57;26.80;;;24.83;;
19905;SDS011;10115;50.906;4.438;2024-01-07T12:48:29;23.07;;;21.87;;
19905;SDS011;10115;50.906;4.438;2024-01-07T12:50:55;26.20;;;24.60;;
19905;SDS011;10115;50.906;4.438;2024-01-07T12:53:21;25.33;;;23.57;;
19905;SDS011;10115;50.906;4.438;2024-01-07T12:55:47;25.70;;;24.00;;
19905;SDS011;10115;50.906;4.438;2024-01-07T12:58:13;26.37;;;24.67;;
19905;SDS011;10115;50.906;4.438;2024-01-07T13:00:38;25.63;;;23.93;;
19905;SDS011;10115;50.906;4.438;2024-01-07T13:03:05;20.80;;;19.80;;
19905;SDS011;10115;50.906;4.438;2024-01-07T13:05:32;24.33;;;22.50;;
19905;SDS011;10115;50.906;4.438;2024-01-07T13:07:58;24.93;;;22.73;;
19905;SDS011;10115;50.906;4.438;2024-01-07T13:10:25;21.83;;;20.63;;
19905;SDS011;10115;50.906;4.438;2024-01-07T13:12:50;23.13;;;21.63;;
19905;SDS011;10115;50.906;4.438;2024-01-07T13:15:16;23.73;;;22.00;;
19905;SDS011;10115;50.906;4.438;2024-01-07T13:17:42;25.67;;;23.70;;
19905;SDS011;10115;50.906;4.438;2024-01-07T13:20:08;23.10;;;21.77;;
19905;SDS011;10115;50.906;4.438;2024-01-07T13:22:36;22.93;;;21.30;;
19905;SDS011;10115;50.906;4.438;2024-01-07T13:25:03;21.73;;;20.50;;
19905;SDS011;10115;50.906;4.438;2024-01-07T13:27:32;21.70;;;20.53;;
19905;SDS011;10115;50.906;4.438;2024-01-07T13:29:58;23.33;;;21.70;;
19905;SDS011;10115;50.906;4.438;2024-01-07T13:32:24;22.93;;;21.57;;
19905;SDS011;10115;50.906;4.438;2024-01-07T13:34:49;21.67;;;19.90;;
19905;SDS011;10115;50.906;4.438;2024-01-07T13:37:15;22.60;;;21.30;;
19905;SDS011;10115;50.906;4.438;2024-01-07T13:39:41;23.67;;;22.00;;
19905;SDS011;10115;50.906;4.438;2024-01-07T13:42:06;23.20;;;21.50;;
19905;SDS011;10115;50.906;4.438;2024-01-07T13:44:32;23.63;;;22.13;;
19905;SDS011;10115;50.906;4.438;2024-01-07T13:46:59;22.70;;;21.20;;
19905;SDS011;10115;50.906;4.438;2024-01-07T13:49:26;21.90;;;20.33;;
19905;SDS011;10115;50.906;4.438;2024-01-07T13:51:53;20.27;;;19.23;;
19905;SDS011;10115;50.906;4.438;2024-01-07T13:54:20;23.43;;;21.83;;
19905;SDS011;10115;50.906;4.438;2024-01-07T13:56:45;25.43;;;23.33;;
19905;SDS011;10115;50.906;4.438;2024-01-07T13:59:11;23.20;;;21.67;;
19905;SDS011;10115;50.906;4.438;2024-01-07T14:01:37;22.80;;;21.20;;
19905;SDS011;10115;50.906;4.438;2024-01-07T14:04:04;22.43;;;20.93;;
19905;SDS011;10115;50.906;4.438;2024-01-07T14:06:30;23.30;;;21.80;;
19905;SDS011;10115;50.906;4.438;2024-01-07T14:08:56;21.93;;;20.57;;
19905;SDS011;10115;50.906;4.438;2024-01-07T14:11:22;21.77;;;20.40;;
19905;SDS011;10115;50.906;4.438;2024-01-07T14:13:47;22.80;;;21.20;;
19905;SDS011;10115;50.906;4.438;2024-01-07T14:16:13;22.63;;;21.20;;
19905;SDS011;10115;50.906;4.438;2024-01-07T14:18:39;21.53;;;20.40;;
19905;SDS011;10115;50.906;4.438;2024-01-07T14:21:05;22.73;;;21.27;;